createdAt,value
2019-01-30T00:00:59.236Z,0.00
2019-01-30T00:01:59.255Z,0.00
2019-01-30T00:02:59.280Z,0.00
2019-01-30T00:03:59.301Z,0.00
2019-01-30T00:04:59.327Z,0.00
2019-01-30T00:05:59.347Z,0.00
2019-01-30T00:06:59.370Z,0.00
2019-01-30T00:07:59.494Z,0.00
2019-01-30T00:08:59.415Z,0.00
2019-01-30T00:09:59.440Z,0.00
2019-01-30T00:10:59.463Z,0.00
2019-01-30T00:11:59.484Z,0.00
2019-01-30T00:12:59.508Z,0.00
2019-01-30T00:13:59.531Z,0.00
2019-01-30T00:14:59.557Z,0.00
2019-01-30T00:15:59.576Z,0.00
2019-01-30T00:16:59.600Z,0.00
2019-01-30T00:17:59.624Z,0.00
2019-01-30T00:18:59.647Z,0.00
2019-01-30T00:19:59.669Z,0.00
2019-01-30T00:20:59.692Z,0.00
2019-01-30T00:21:59.715Z,0.00
2019-01-30T00:22:59.740Z,0.00
2019-01-30T00:23:59.763Z,0.00
2019-01-30T00:24:59.785Z,0.00
2019-01-30T00:25:59.808Z,0.00
2019-01-30T00:26:59.836Z,0.00
2019-01-30T00:27:59.855Z,0.00
2019-01-30T00:28:59.878Z,0.00
2019-01-30T00:30:04.181Z,0.00
2019-01-30T00:30:59.924Z,0.00
2019-01-30T00:31:59.947Z,0.00
2019-01-30T00:32:59.971Z,0.00
2019-01-30T00:33:59.994Z,0.00
2019-01-30T00:35:00.017Z,0.00
2019-01-30T00:36:00.040Z,0.00
2019-01-30T00:37:00.064Z,0.00
2019-01-30T00:38:00.085Z,0.00
2019-01-30T00:39:00.109Z,0.00
2019-01-30T00:40:00.200Z,0.00
2019-01-30T00:41:00.156Z,0.00
2019-01-30T00:42:00.179Z,0.00
2019-01-30T00:43:00.201Z,0.00
2019-01-30T00:44:00.224Z,0.00
2019-01-30T00:45:00.249Z,0.00
2019-01-30T00:46:00.273Z,0.00
2019-01-30T00:47:00.297Z,0.00
2019-01-30T00:48:00.317Z,0.00
2019-01-30T00:49:00.340Z,0.00
2019-01-30T00:50:00.372Z,0.00
2019-01-30T00:51:00.386Z,0.00
2019-01-30T00:52:00.412Z,0.00
2019-01-30T00:53:00.434Z,0.00
2019-01-30T00:54:00.456Z,0.00
2019-01-30T00:55:00.479Z,0.00
2019-01-30T00:56:00.516Z,0.00
2019-01-30T00:57:00.619Z,0.00
2019-01-30T00:58:00.549Z,0.00
2019-01-30T00:59:00.574Z,0.00
2019-01-30T01:00:00.615Z,0.00
2019-01-30T01:01:00.618Z,0.00
2019-01-30T01:02:00.643Z,0.00
2019-01-30T01:03:00.666Z,0.00
2019-01-30T01:04:00.688Z,0.00
2019-01-30T01:05:00.711Z,0.00
2019-01-30T01:06:00.735Z,0.00
2019-01-30T01:07:00.758Z,0.00
2019-01-30T01:08:00.781Z,0.00
2019-01-30T01:09:00.807Z,0.00
2019-01-30T01:10:00.830Z,0.00
2019-01-30T01:11:00.852Z,0.00
2019-01-30T01:12:00.874Z,0.00
2019-01-30T01:13:00.898Z,0.00
2019-01-30T01:14:00.921Z,0.00
2019-01-30T01:15:00.945Z,0.00
2019-01-30T01:16:00.969Z,0.00
2019-01-30T01:17:00.994Z,0.00
2019-01-30T01:18:01.015Z,0.00
2019-01-30T01:19:01.042Z,0.00
2019-01-30T01:20:01.061Z,0.00
2019-01-30T01:21:01.087Z,0.00
2019-01-30T01:22:01.109Z,0.00
2019-01-30T01:23:01.183Z,0.00
2019-01-30T01:24:01.155Z,0.00
2019-01-30T01:25:01.186Z,0.00
2019-01-30T01:26:01.203Z,0.00
2019-01-30T01:27:01.226Z,0.00
2019-01-30T01:28:01.248Z,0.00
2019-01-30T01:29:01.273Z,0.00
2019-01-30T01:30:01.295Z,0.00
2019-01-30T01:31:01.322Z,0.00
2019-01-30T01:32:01.343Z,0.00
2019-01-30T01:33:01.364Z,0.00
2019-01-30T01:34:01.392Z,0.00
2019-01-30T01:35:01.414Z,0.00
2019-01-30T01:36:01.437Z,0.00
2019-01-30T01:37:01.459Z,0.00
2019-01-30T01:38:01.484Z,0.00
2019-01-30T01:39:01.507Z,0.00
2019-01-30T01:40:01.565Z,0.00
2019-01-30T01:41:01.558Z,0.00
2019-01-30T01:42:01.577Z,0.00
2019-01-30T01:43:01.603Z,0.00
2019-01-30T01:44:01.624Z,0.00
2019-01-30T01:45:01.650Z,0.00
2019-01-30T01:46:01.671Z,0.00
2019-01-30T01:47:01.693Z,0.00
2019-01-30T01:48:01.719Z,0.00
2019-01-30T01:49:01.740Z,0.00
2019-01-30T01:50:01.765Z,0.00
2019-01-30T01:51:01.788Z,0.00
2019-01-30T01:52:01.810Z,0.00
2019-01-30T01:53:01.839Z,0.00
2019-01-30T01:54:01.858Z,0.00
2019-01-30T01:55:01.882Z,0.00
2019-01-30T01:56:01.902Z,0.00
2019-01-30T01:57:01.928Z,0.00
2019-01-30T01:58:01.954Z,0.00
2019-01-30T01:59:01.974Z,0.00
2019-01-30T02:00:01.998Z,0.00
2019-01-30T02:01:02.020Z,0.00
2019-01-30T02:02:02.043Z,0.00
2019-01-30T02:03:02.068Z,0.00
2019-01-30T02:04:02.090Z,0.00
2019-01-30T02:05:02.115Z,0.00
2019-01-30T02:06:02.136Z,0.00
2019-01-30T02:07:02.162Z,0.00
2019-01-30T02:08:02.184Z,0.00
2019-01-30T02:09:02.209Z,0.00
2019-01-30T02:10:02.229Z,0.00
2019-01-30T02:11:02.254Z,0.00
2019-01-30T02:12:02.278Z,0.00
2019-01-30T02:13:02.350Z,0.00
2019-01-30T02:14:02.324Z,0.00
2019-01-30T02:15:02.348Z,0.00
2019-01-30T02:16:02.375Z,0.00
2019-01-30T02:17:02.394Z,0.00
2019-01-30T02:18:02.419Z,0.00
2019-01-30T02:19:02.442Z,0.00
2019-01-30T02:20:02.462Z,0.00
2019-01-30T02:21:02.490Z,0.00
2019-01-30T02:22:02.511Z,0.00
2019-01-30T02:23:02.536Z,0.00
2019-01-30T02:24:02.556Z,0.00
2019-01-30T02:25:02.585Z,0.00
2019-01-30T02:26:02.604Z,0.00
2019-01-30T02:27:02.629Z,0.00
2019-01-30T02:28:02.651Z,0.00
2019-01-30T02:29:02.676Z,0.00
2019-01-30T02:30:02.703Z,0.00
2019-01-30T02:31:02.725Z,0.00
2019-01-30T02:32:02.747Z,0.00
2019-01-30T02:33:02.770Z,0.00
2019-01-30T02:34:02.792Z,0.00
2019-01-30T02:35:02.817Z,0.00
2019-01-30T02:36:02.839Z,0.00
2019-01-30T02:37:02.864Z,0.00
2019-01-30T02:38:02.886Z,0.00
2019-01-30T02:39:02.909Z,0.00
2019-01-30T02:40:02.934Z,0.00
2019-01-30T02:41:02.956Z,0.00
2019-01-30T02:42:02.980Z,0.00
2019-01-30T02:43:03.008Z,0.00
2019-01-30T02:44:03.026Z,0.00
2019-01-30T02:45:03.049Z,0.00
2019-01-30T02:46:03.073Z,0.00
2019-01-30T02:47:03.098Z,0.00
2019-01-30T02:48:03.131Z,0.00
2019-01-30T02:49:03.143Z,0.00
2019-01-30T02:50:03.168Z,0.00
2019-01-30T02:51:03.191Z,0.00
2019-01-30T02:52:03.228Z,0.00
2019-01-30T02:53:03.242Z,0.00
2019-01-30T02:54:03.261Z,0.00
2019-01-30T02:55:03.294Z,0.00
2019-01-30T02:56:03.315Z,0.00
2019-01-30T02:57:03.331Z,0.00
2019-01-30T02:58:03.356Z,0.00
2019-01-30T02:59:03.379Z,0.00
2019-01-30T03:00:03.403Z,0.00
2019-01-30T03:01:03.426Z,0.00
2019-01-30T03:02:03.450Z,0.00
2019-01-30T03:03:03.474Z,0.00
2019-01-30T03:04:03.498Z,0.00
2019-01-30T03:05:03.523Z,0.00
2019-01-30T03:06:03.546Z,0.00
2019-01-30T03:07:03.569Z,0.00
2019-01-30T03:08:03.591Z,0.00
2019-01-30T03:09:03.615Z,0.00
2019-01-30T03:10:03.643Z,0.00
2019-01-30T03:11:03.666Z,0.00
2019-01-30T03:12:03.689Z,0.00
2019-01-30T03:13:03.712Z,0.00
2019-01-30T03:14:03.735Z,0.00
2019-01-30T03:15:03.758Z,0.00
2019-01-30T03:16:03.781Z,0.00
2019-01-30T03:17:03.808Z,0.00
2019-01-30T03:18:03.831Z,0.00
2019-01-30T03:19:03.854Z,0.00
2019-01-30T03:20:03.877Z,0.00
2019-01-30T03:21:03.902Z,0.00
2019-01-30T03:22:03.925Z,0.00
2019-01-30T03:23:03.951Z,0.00
2019-01-30T03:24:03.970Z,0.00
2019-01-30T03:25:03.995Z,0.00
2019-01-30T03:26:04.022Z,0.00
2019-01-30T03:27:04.043Z,0.00
2019-01-30T03:28:04.067Z,0.00
2019-01-30T03:29:04.089Z,0.00
2019-01-30T03:30:04.131Z,0.00
2019-01-30T03:31:16.942Z,0.00
2019-01-30T03:32:04.163Z,0.00
2019-01-30T03:33:04.187Z,0.00
2019-01-30T03:34:04.208Z,0.00
2019-01-30T03:35:04.235Z,0.00
2019-01-30T03:36:04.261Z,0.00
2019-01-30T03:37:04.281Z,0.00
2019-01-30T03:38:04.307Z,0.00
2019-01-30T03:39:04.329Z,0.00
2019-01-30T03:40:04.351Z,0.00
2019-01-30T03:41:04.376Z,0.00
2019-01-30T03:42:04.406Z,0.00
2019-01-30T03:43:04.425Z,0.00
2019-01-30T03:44:04.448Z,0.00
2019-01-30T03:45:04.471Z,0.00
2019-01-30T03:46:04.497Z,0.00
2019-01-30T03:47:04.521Z,0.00
2019-01-30T03:48:04.543Z,0.00
2019-01-30T03:49:04.568Z,0.00
2019-01-30T03:50:04.593Z,0.00
2019-01-30T03:51:04.615Z,0.00
2019-01-30T03:52:04.649Z,0.00
2019-01-30T03:53:04.664Z,0.00
2019-01-30T03:54:04.690Z,0.00
2019-01-30T03:55:04.711Z,0.00
2019-01-30T03:56:04.735Z,0.00
2019-01-30T03:57:04.759Z,0.00
2019-01-30T03:58:04.784Z,0.00
2019-01-30T03:59:04.809Z,0.00
2019-01-30T04:00:04.836Z,0.00
2019-01-30T04:01:04.857Z,0.00
2019-01-30T04:02:04.879Z,0.00
2019-01-30T04:03:04.905Z,0.00
2019-01-30T04:04:04.927Z,0.00
2019-01-30T04:05:04.953Z,0.00
2019-01-30T04:06:04.977Z,0.00
2019-01-30T04:07:05.001Z,0.00
2019-01-30T04:08:05.026Z,0.00
2019-01-30T04:09:05.050Z,0.00
2019-01-30T04:10:05.122Z,0.00
2019-01-30T04:11:05.097Z,0.00
2019-01-30T04:12:05.120Z,0.00
2019-01-30T04:13:05.144Z,0.00
2019-01-30T04:14:05.169Z,0.00
2019-01-30T04:15:05.192Z,0.00
2019-01-30T04:16:05.215Z,0.00
2019-01-30T04:17:05.242Z,0.00
2019-01-30T04:18:05.265Z,0.00
2019-01-30T04:19:05.287Z,0.00
2019-01-30T04:20:05.317Z,0.00
2019-01-30T04:21:05.336Z,0.00
2019-01-30T04:22:05.359Z,0.00
2019-01-30T04:23:05.383Z,0.00
2019-01-30T04:24:05.406Z,0.00
2019-01-30T04:25:05.430Z,0.00
2019-01-30T04:26:05.458Z,0.00
2019-01-30T04:27:05.479Z,0.00
2019-01-30T04:28:05.508Z,0.00
2019-01-30T04:29:05.526Z,0.00
2019-01-30T04:30:05.555Z,0.00
2019-01-30T04:31:05.573Z,0.00
2019-01-30T04:32:05.600Z,0.00
2019-01-30T04:33:05.620Z,0.00
2019-01-30T04:34:05.646Z,0.00
2019-01-30T04:35:05.668Z,0.00
2019-01-30T04:36:05.693Z,0.00
2019-01-30T04:37:05.715Z,0.00
2019-01-30T04:38:05.738Z,0.00
2019-01-30T04:39:05.814Z,0.00
2019-01-30T04:40:05.786Z,0.00
2019-01-30T04:41:05.809Z,0.00
2019-01-30T04:42:05.834Z,0.00
2019-01-30T04:43:05.860Z,0.00
2019-01-30T04:44:05.881Z,0.00
2019-01-30T04:45:05.905Z,0.00
2019-01-30T04:46:05.934Z,0.00
2019-01-30T04:47:05.953Z,0.00
2019-01-30T04:48:05.975Z,0.00
2019-01-30T04:49:06.000Z,0.00
2019-01-30T04:50:06.022Z,0.00
2019-01-30T04:51:06.047Z,0.00
2019-01-30T04:52:06.071Z,0.00
2019-01-30T04:53:06.094Z,0.00
2019-01-30T04:54:06.119Z,0.00
2019-01-30T04:55:06.142Z,0.00
2019-01-30T04:56:06.173Z,0.00
2019-01-30T04:57:06.189Z,0.00
2019-01-30T04:58:06.214Z,0.00
2019-01-30T04:59:06.239Z,0.00
2019-01-30T05:00:06.262Z,0.00
2019-01-30T05:01:06.285Z,0.00
2019-01-30T05:02:06.310Z,0.00
2019-01-30T05:03:06.335Z,0.00
2019-01-30T05:04:06.357Z,0.00
2019-01-30T05:05:06.382Z,0.00
2019-01-30T05:06:06.455Z,0.00
2019-01-30T05:07:06.429Z,0.00
2019-01-30T05:08:06.462Z,0.00
2019-01-30T05:09:06.478Z,0.00
2019-01-30T05:10:06.500Z,0.00
2019-01-30T05:11:06.525Z,0.00
2019-01-30T05:12:06.548Z,0.00
2019-01-30T05:13:06.573Z,0.00
2019-01-30T05:14:06.603Z,0.00
2019-01-30T05:15:06.621Z,0.00
2019-01-30T05:16:06.644Z,0.00
2019-01-30T05:17:06.668Z,0.00
2019-01-30T05:18:06.693Z,0.00
2019-01-30T05:19:06.718Z,0.00
2019-01-30T05:20:09.665Z,0.00
2019-01-30T05:21:06.771Z,0.00
2019-01-30T05:22:06.790Z,0.00
2019-01-30T05:23:06.866Z,0.00
2019-01-30T05:24:06.836Z,0.00
2019-01-30T05:25:06.861Z,0.00
2019-01-30T05:26:06.885Z,0.00
2019-01-30T05:27:06.916Z,0.00
2019-01-30T05:28:06.932Z,0.00
2019-01-30T05:29:06.956Z,0.00
2019-01-30T05:30:06.982Z,0.00
2019-01-30T05:31:07.009Z,0.00
2019-01-30T05:32:07.029Z,0.00
2019-01-30T05:33:07.057Z,0.00
2019-01-30T05:34:07.078Z,0.00
2019-01-30T05:35:07.102Z,0.00
2019-01-30T05:36:07.124Z,0.00
2019-01-30T05:37:07.148Z,0.00
2019-01-30T05:38:07.173Z,0.00
2019-01-30T05:39:07.198Z,0.00
2019-01-30T05:40:07.221Z,0.00
2019-01-30T05:41:07.246Z,0.00
2019-01-30T05:42:07.269Z,0.00
2019-01-30T05:43:07.293Z,0.00
2019-01-30T05:44:07.317Z,0.00
2019-01-30T05:45:07.351Z,0.00
2019-01-30T05:46:07.372Z,0.00
2019-01-30T05:47:07.390Z,0.00
2019-01-30T05:48:07.416Z,0.00
2019-01-30T05:49:07.438Z,0.00
2019-01-30T05:50:07.460Z,0.00
2019-01-30T05:51:07.487Z,0.00
2019-01-30T05:52:07.511Z,0.00
2019-01-30T05:53:07.533Z,0.00
2019-01-30T05:54:07.559Z,0.00
2019-01-30T05:55:07.588Z,0.00
2019-01-30T05:56:07.603Z,0.00
2019-01-30T05:57:07.629Z,0.00
2019-01-30T05:58:07.650Z,0.00
2019-01-30T05:59:07.676Z,0.00
2019-01-30T06:00:07.699Z,0.00
2019-01-30T06:01:07.724Z,0.00
2019-01-30T06:02:12.219Z,0.00
2019-01-30T06:03:07.773Z,0.00
2019-01-30T06:04:07.794Z,0.00
2019-01-30T06:05:07.818Z,0.00
2019-01-30T06:06:07.843Z,0.00
2019-01-30T06:07:07.866Z,0.00
2019-01-30T06:08:07.887Z,0.00
2019-01-30T06:09:07.913Z,0.00
2019-01-30T06:10:07.945Z,0.00
2019-01-30T06:11:07.962Z,0.00
2019-01-30T06:12:07.985Z,0.00
2019-01-30T06:13:08.007Z,0.00
2019-01-30T06:14:08.032Z,0.00
2019-01-30T06:15:08.056Z,0.00
2019-01-30T06:16:08.080Z,0.00
2019-01-30T06:17:09.601Z,0.00
2019-01-30T06:18:08.125Z,0.00
2019-01-30T06:19:08.149Z,0.00
2019-01-30T06:20:08.174Z,0.00
2019-01-30T06:21:08.198Z,0.00
2019-01-30T06:22:08.221Z,0.00
2019-01-30T06:23:08.253Z,0.00
2019-01-30T06:24:08.269Z,0.00
2019-01-30T06:25:08.292Z,0.00
2019-01-30T06:26:08.315Z,0.00
2019-01-30T06:27:08.338Z,0.00
2019-01-30T06:28:08.361Z,0.00
2019-01-30T06:29:08.388Z,0.00
2019-01-30T06:30:08.409Z,0.00
2019-01-30T06:31:08.433Z,4.00
2019-01-30T06:32:08.455Z,4.00
2019-01-30T06:33:08.479Z,0.00
2019-01-30T06:34:08.504Z,4.00
2019-01-30T06:35:08.527Z,4.00
2019-01-30T06:36:08.550Z,4.00
2019-01-30T06:37:08.574Z,8.00
2019-01-30T06:38:08.597Z,8.00
2019-01-30T06:39:08.621Z,12.00
2019-01-30T06:40:08.646Z,12.00
2019-01-30T06:41:08.671Z,16.00
2019-01-30T06:42:08.695Z,16.00
2019-01-30T06:43:08.720Z,24.00
2019-01-30T06:44:08.740Z,28.00
2019-01-30T06:45:08.764Z,36.00
2019-01-30T06:46:08.789Z,40.00
2019-01-30T06:47:08.813Z,44.00
2019-01-30T06:48:08.837Z,56.00
2019-01-30T06:49:08.859Z,64.00
2019-01-30T06:50:08.891Z,76.00
2019-01-30T06:51:08.910Z,84.00
2019-01-30T06:52:08.932Z,100.00
2019-01-30T06:53:08.959Z,108.00
2019-01-30T06:54:08.981Z,124.00
2019-01-30T06:55:09.004Z,140.00
2019-01-30T06:56:09.029Z,160.00
2019-01-30T06:57:09.054Z,180.00
2019-01-30T06:58:09.101Z,196.00
2019-01-30T06:59:09.168Z,220.00
2019-01-30T07:00:09.127Z,240.00
2019-01-30T07:01:09.150Z,256.00
2019-01-30T07:02:09.176Z,280.00
2019-01-30T07:03:09.201Z,304.00
2019-01-30T07:04:09.223Z,328.00
2019-01-30T07:05:09.250Z,360.00
2019-01-30T07:06:09.277Z,392.00
2019-01-30T07:07:09.298Z,420.00
2019-01-30T07:08:09.321Z,456.00
2019-01-30T07:09:09.347Z,484.00
2019-01-30T07:10:09.371Z,520.00
2019-01-30T07:11:10.699Z,552.00
2019-01-30T07:12:09.418Z,580.00
2019-01-30T07:13:09.444Z,612.00
2019-01-30T07:14:09.468Z,660.00
2019-01-30T07:15:09.493Z,700.00
2019-01-30T07:16:09.519Z,744.00
2019-01-30T07:17:09.543Z,784.00
2019-01-30T07:18:09.568Z,820.00
2019-01-30T07:19:09.590Z,848.00
2019-01-30T07:20:09.614Z,888.00
2019-01-30T07:21:09.638Z,936.00
2019-01-30T07:22:09.663Z,980.00
2019-01-30T07:23:09.688Z,1032.00
2019-01-30T07:24:09.713Z,1080.00
2019-01-30T07:25:09.738Z,1136.00
2019-01-30T07:26:09.760Z,1196.00
2019-01-30T07:27:09.787Z,1248.00
2019-01-30T07:28:09.810Z,1300.00
2019-01-30T07:29:09.837Z,1344.00
2019-01-30T07:30:09.859Z,1392.00
2019-01-30T07:31:09.884Z,1464.00
2019-01-30T07:32:09.908Z,1540.00
2019-01-30T07:33:09.933Z,1620.00
2019-01-30T07:34:09.957Z,1700.00
2019-01-30T07:35:09.982Z,1764.00
2019-01-30T07:36:10.006Z,1824.00
2019-01-30T07:37:10.031Z,1912.00
2019-01-30T07:38:10.057Z,1984.00
2019-01-30T07:39:10.080Z,2040.00
2019-01-30T07:40:10.104Z,2172.00
2019-01-30T07:41:10.129Z,2268.00
2019-01-30T07:42:10.153Z,2416.00
2019-01-30T07:43:10.179Z,2532.00
2019-01-30T07:44:10.204Z,2620.00
2019-01-30T07:45:10.227Z,2644.00
2019-01-30T07:46:10.254Z,2608.00
2019-01-30T07:47:10.278Z,2664.00
2019-01-30T07:48:10.300Z,2736.00
2019-01-30T07:49:10.417Z,2872.00
2019-01-30T07:50:10.352Z,3032.00
2019-01-30T07:51:10.376Z,3180.00
2019-01-30T07:52:10.400Z,3360.00
2019-01-30T07:53:10.426Z,3448.00
2019-01-30T07:54:10.450Z,3556.00
2019-01-30T07:55:10.475Z,3960.00
2019-01-30T07:56:10.499Z,3756.00
2019-01-30T07:57:10.523Z,3848.00
2019-01-30T07:58:10.549Z,3896.00
2019-01-30T07:59:10.575Z,4172.00
2019-01-30T08:00:10.605Z,4688.00
2019-01-30T08:01:10.625Z,4996.00
2019-01-30T08:02:10.649Z,5252.00
2019-01-30T08:03:10.676Z,5584.00
2019-01-30T08:04:10.699Z,5408.00
2019-01-30T08:05:10.725Z,5036.00
2019-01-30T08:06:10.750Z,4564.00
2019-01-30T08:07:10.776Z,4428.00
2019-01-30T08:08:10.803Z,7432.00
2019-01-30T08:09:10.826Z,9712.00
2019-01-30T08:10:10.853Z,5940.00
2019-01-30T08:11:10.879Z,6292.00
2019-01-30T08:12:12.574Z,5116.00
2019-01-30T08:13:10.929Z,12872.00
2019-01-30T08:14:10.955Z,5088.00
2019-01-30T08:15:10.981Z,3860.00
2019-01-30T08:16:11.007Z,4536.00
2019-01-30T08:17:11.029Z,3872.00
2019-01-30T08:18:11.056Z,3664.00
2019-01-30T08:19:11.083Z,3120.00
2019-01-30T08:20:11.108Z,2996.00
2019-01-30T08:21:11.133Z,2868.00
2019-01-30T08:22:11.162Z,3632.00
2019-01-30T08:23:11.449Z,3640.00
2019-01-30T08:24:11.289Z,3804.00
2019-01-30T08:25:11.248Z,4500.00
2019-01-30T08:26:11.633Z,4312.00
2019-01-30T08:27:11.537Z,7860.00
2019-01-30T08:28:11.409Z,4740.00
2019-01-30T08:29:11.534Z,5384.00
2019-01-30T08:30:22.087Z,6188.00
2019-01-30T08:31:11.715Z,6084.00
2019-01-30T08:32:11.748Z,5716.00
2019-01-30T08:33:11.476Z,6660.00
2019-01-30T08:34:11.472Z,6152.00
2019-01-30T08:35:11.500Z,6368.00
2019-01-30T08:36:11.524Z,6372.00
2019-01-30T08:37:11.548Z,6392.00
2019-01-30T08:38:11.575Z,7304.00
2019-01-30T08:39:11.602Z,7360.00
2019-01-30T08:40:11.627Z,7468.00
2019-01-30T08:41:11.652Z,7268.00
2019-01-30T08:42:11.682Z,7508.00
2019-01-30T08:43:11.705Z,9796.00
2019-01-30T08:44:11.729Z,9980.00
2019-01-30T08:45:11.756Z,9236.00
2019-01-30T08:46:11.782Z,8520.00
2019-01-30T08:47:11.809Z,8540.00
2019-01-30T08:48:11.835Z,7912.00
2019-01-30T08:49:11.861Z,8348.00
2019-01-30T08:50:11.887Z,10512.00
2019-01-30T08:51:11.916Z,9264.00
2019-01-30T08:52:11.941Z,9744.00
2019-01-30T08:53:11.967Z,11220.00
2019-01-30T08:54:11.993Z,11520.00
2019-01-30T08:55:12.021Z,11416.00
2019-01-30T08:56:12.048Z,11332.00
2019-01-30T08:57:12.083Z,19264.00
2019-01-30T08:58:12.101Z,12000.00
2019-01-30T08:59:12.126Z,10552.00
2019-01-30T09:00:12.152Z,13296.00
2019-01-30T09:01:12.180Z,28256.00
2019-01-30T09:02:12.206Z,21184.00
2019-01-30T09:03:14.772Z,12924.00
2019-01-30T09:04:12.261Z,12172.00
2019-01-30T09:05:12.287Z,11488.00
2019-01-30T09:06:12.316Z,11024.00
2019-01-30T09:07:12.343Z,10492.00
2019-01-30T09:08:12.367Z,8796.00
2019-01-30T09:09:12.395Z,9012.00
2019-01-30T09:10:12.423Z,10620.00
2019-01-30T09:11:12.454Z,10080.00
2019-01-30T09:12:12.478Z,10472.00
2019-01-30T09:13:12.504Z,14120.00
2019-01-30T09:14:12.532Z,13904.00
2019-01-30T09:15:12.560Z,12744.00
2019-01-30T09:16:12.586Z,9684.00
2019-01-30T09:17:12.615Z,10920.00
2019-01-30T09:18:12.678Z,10932.00
2019-01-30T09:19:12.670Z,11596.00
2019-01-30T09:20:12.698Z,12124.00
2019-01-30T09:21:12.724Z,14176.00
2019-01-30T09:22:12.752Z,13756.00
2019-01-30T09:23:12.786Z,13628.00
2019-01-30T09:24:12.807Z,31712.00
2019-01-30T09:25:12.834Z,18336.00
2019-01-30T09:26:12.863Z,15712.00
2019-01-30T09:27:12.893Z,10712.00
2019-01-30T09:28:12.918Z,9944.00
2019-01-30T09:29:12.949Z,11088.00
2019-01-30T09:30:12.975Z,7840.00
2019-01-30T09:31:13.005Z,8324.00
2019-01-30T09:32:13.031Z,3936.00
2019-01-30T09:33:13.071Z,3884.00
2019-01-30T09:34:13.090Z,3780.00
2019-01-30T09:35:13.119Z,3572.00
2019-01-30T09:36:13.144Z,3332.00
2019-01-30T09:37:13.267Z,3724.00
2019-01-30T09:38:13.199Z,3500.00
2019-01-30T09:39:13.229Z,3344.00
2019-01-30T09:40:13.256Z,3376.00
2019-01-30T09:41:13.283Z,3696.00
2019-01-30T09:42:13.311Z,4164.00
2019-01-30T09:43:13.338Z,4160.00
2019-01-30T09:44:13.364Z,5232.00
2019-01-30T09:45:13.401Z,4696.00
2019-01-30T09:46:13.419Z,5024.00
2019-01-30T09:47:13.446Z,6192.00
2019-01-30T09:48:13.472Z,6288.00
2019-01-30T09:49:13.519Z,5424.00
2019-01-30T09:50:13.533Z,6672.00
2019-01-30T09:51:13.591Z,6892.00
2019-01-30T09:52:13.601Z,7004.00
2019-01-30T09:53:13.613Z,5916.00
2019-01-30T09:54:13.659Z,5348.00
2019-01-30T09:55:13.691Z,5092.00
2019-01-30T09:56:15.479Z,7916.00
2019-01-30T09:57:13.715Z,10748.00
2019-01-30T09:58:13.743Z,12344.00
2019-01-30T09:59:13.770Z,13076.00
2019-01-30T10:00:13.794Z,10272.00
2019-01-30T10:01:13.822Z,7588.00
2019-01-30T10:02:13.850Z,7244.00
2019-01-30T10:03:13.878Z,7176.00
2019-01-30T10:04:13.902Z,7400.00
2019-01-30T10:05:13.936Z,8880.00
2019-01-30T10:06:13.956Z,10272.00
2019-01-30T10:07:13.984Z,14440.00
2019-01-30T10:08:14.010Z,8204.00
2019-01-30T10:09:14.037Z,8352.00
2019-01-30T10:10:14.068Z,8612.00
2019-01-30T10:11:14.092Z,8992.00
2019-01-30T10:12:14.117Z,8332.00
2019-01-30T10:13:14.159Z,7632.00
2019-01-30T10:14:14.171Z,7588.00
2019-01-30T10:15:14.198Z,7272.00
2019-01-30T10:16:14.226Z,6324.00
2019-01-30T10:17:14.251Z,5312.00
2019-01-30T10:18:14.278Z,5428.00
2019-01-30T10:19:14.307Z,5540.00
2019-01-30T10:20:14.332Z,4916.00
2019-01-30T10:21:14.359Z,4252.00
2019-01-30T10:22:14.386Z,4060.00
2019-01-30T10:23:14.412Z,4184.00
2019-01-30T10:24:14.437Z,3752.00
2019-01-30T10:25:14.473Z,4020.00
2019-01-30T10:26:14.493Z,5096.00
2019-01-30T10:27:14.520Z,5140.00
2019-01-30T10:28:16.717Z,5320.00
2019-01-30T10:29:14.571Z,5724.00
2019-01-30T10:30:14.600Z,4868.00
2019-01-30T10:31:14.625Z,4260.00
2019-01-30T10:32:14.651Z,4104.00
2019-01-30T10:33:14.677Z,5236.00
2019-01-30T10:34:14.707Z,5104.00
2019-01-30T10:35:14.731Z,4780.00
2019-01-30T10:36:14.756Z,4500.00
2019-01-30T10:37:14.783Z,5036.00
2019-01-30T10:38:14.811Z,4848.00
2019-01-30T10:39:14.838Z,4084.00
2019-01-30T10:40:14.862Z,4540.00
2019-01-30T10:41:14.888Z,5028.00
2019-01-30T10:42:14.915Z,5836.00
2019-01-30T10:43:14.941Z,5984.00
2019-01-30T10:44:14.969Z,4744.00
2019-01-30T10:45:14.994Z,4056.00
2019-01-30T10:46:15.022Z,3420.00
2019-01-30T10:47:15.046Z,3964.00
2019-01-30T10:48:15.094Z,4264.00
2019-01-30T10:49:15.097Z,4900.00
2019-01-30T10:50:15.124Z,5892.00
2019-01-30T10:51:15.152Z,5028.00
2019-01-30T10:52:15.177Z,5056.00
2019-01-30T10:53:15.202Z,6052.00
2019-01-30T10:54:15.228Z,7132.00
2019-01-30T10:55:15.343Z,7032.00
2019-01-30T10:56:16.628Z,8216.00
2019-01-30T10:57:15.306Z,8636.00
2019-01-30T10:58:15.346Z,6508.00
2019-01-30T10:59:15.359Z,6528.00
2019-01-30T11:00:15.384Z,6216.00
2019-01-30T11:01:15.411Z,6748.00
2019-01-30T11:02:15.437Z,6432.00
2019-01-30T11:03:15.465Z,5652.00
2019-01-30T11:04:15.489Z,5720.00
2019-01-30T11:05:15.520Z,6164.00
2019-01-30T11:06:15.542Z,6016.00
2019-01-30T11:07:15.572Z,5200.00
2019-01-30T11:08:15.593Z,4960.00
2019-01-30T11:09:15.621Z,5176.00
2019-01-30T11:10:15.647Z,4432.00
2019-01-30T11:11:15.672Z,4604.00
2019-01-30T11:12:15.701Z,4936.00
2019-01-30T11:13:15.726Z,5096.00
2019-01-30T11:14:15.752Z,5860.00
2019-01-30T11:15:15.778Z,6140.00
2019-01-30T11:16:15.813Z,5764.00
2019-01-30T11:17:15.832Z,4976.00
2019-01-30T11:18:15.857Z,5460.00
2019-01-30T11:19:15.883Z,6000.00
2019-01-30T11:20:15.911Z,6676.00
2019-01-30T11:21:15.936Z,7808.00
2019-01-30T11:22:15.961Z,8260.00
2019-01-30T11:23:15.987Z,7144.00
2019-01-30T11:24:16.013Z,6640.00
2019-01-30T11:25:16.039Z,5696.00
2019-01-30T11:26:16.066Z,5512.00
2019-01-30T11:27:16.093Z,6744.00
2019-01-30T11:28:16.117Z,6836.00
2019-01-30T11:29:16.144Z,6652.00
2019-01-30T11:30:16.170Z,6788.00
2019-01-30T11:31:16.198Z,7444.00
2019-01-30T11:32:16.222Z,7336.00
2019-01-30T11:33:16.250Z,7604.00
2019-01-30T11:34:16.276Z,6292.00
2019-01-30T11:35:16.302Z,6144.00
2019-01-30T11:36:16.328Z,5936.00
2019-01-30T11:37:16.355Z,5484.00
2019-01-30T11:38:16.382Z,5240.00
2019-01-30T11:39:16.409Z,5112.00
2019-01-30T11:40:16.433Z,4936.00
2019-01-30T11:41:16.460Z,5028.00
2019-01-30T11:42:16.488Z,4996.00
2019-01-30T11:43:16.513Z,5672.00
2019-01-30T11:44:16.539Z,5356.00
2019-01-30T11:45:16.565Z,4580.00
2019-01-30T11:46:16.592Z,4120.00
2019-01-30T11:47:16.617Z,4524.00
2019-01-30T11:48:16.644Z,4992.00
2019-01-30T11:49:16.672Z,5516.00
2019-01-30T11:50:16.697Z,4824.00
2019-01-30T11:51:16.726Z,5452.00
2019-01-30T11:52:16.749Z,5932.00
2019-01-30T11:53:16.776Z,4504.00
2019-01-30T11:54:16.805Z,4204.00
2019-01-30T11:55:16.829Z,4704.00
2019-01-30T11:56:16.854Z,4572.00
2019-01-30T11:57:16.883Z,4264.00
2019-01-30T11:58:16.908Z,3408.00
2019-01-30T11:59:16.938Z,3536.00
2019-01-30T12:00:17.012Z,3616.00
2019-01-30T12:01:16.987Z,3872.00
2019-01-30T12:02:17.013Z,4936.00
2019-01-30T12:03:17.040Z,5344.00
2019-01-30T12:04:18.224Z,5136.00
2019-01-30T12:05:17.092Z,4496.00
2019-01-30T12:06:17.117Z,4732.00
2019-01-30T12:07:17.145Z,5268.00
2019-01-30T12:08:17.168Z,5244.00
2019-01-30T12:09:17.195Z,4764.00
2019-01-30T12:10:17.222Z,4376.00
2019-01-30T12:11:17.247Z,4080.00
2019-01-30T12:12:17.273Z,4348.00
2019-01-30T12:13:17.299Z,4560.00
2019-01-30T12:14:17.327Z,5052.00
2019-01-30T12:15:17.352Z,4624.00
2019-01-30T12:16:17.379Z,4260.00
2019-01-30T12:17:17.404Z,4512.00
2019-01-30T12:18:17.430Z,5432.00
2019-01-30T12:19:17.457Z,6048.00
2019-01-30T12:20:17.482Z,5396.00
2019-01-30T12:21:17.511Z,5484.00
2019-01-30T12:22:17.534Z,5068.00
2019-01-30T12:23:17.562Z,4936.00
2019-01-30T12:24:17.586Z,4776.00
2019-01-30T12:25:17.611Z,4712.00
2019-01-30T12:26:17.638Z,4356.00
2019-01-30T12:27:17.664Z,3748.00
2019-01-30T12:28:17.691Z,3708.00
2019-01-30T12:29:17.716Z,4344.00
2019-01-30T12:30:17.744Z,3988.00
2019-01-30T12:31:17.769Z,3688.00
2019-01-30T12:32:17.795Z,3148.00
2019-01-30T12:33:17.820Z,2940.00
2019-01-30T12:34:27.862Z,2988.00
2019-01-30T12:35:17.874Z,3004.00
2019-01-30T12:36:17.899Z,2900.00
2019-01-30T12:37:17.924Z,3652.00
2019-01-30T12:38:17.951Z,4400.00
2019-01-30T12:39:17.975Z,4456.00
2019-01-30T12:40:18.002Z,4336.00
2019-01-30T12:41:18.027Z,5108.00
2019-01-30T12:42:18.055Z,4108.00
2019-01-30T12:43:18.078Z,4240.00